Wonthaggi Composite, Australia
Current Conditions -  °F | °C
As of 11:00 PM on Tuesday 21 Oct 2014 (Local Time) from YMEN Reporting Station
Clear Clear  
Wind Chill: 66°   Ceiling: Unl
Heat Index: 66°   Visibility: 6mi
Dew Point: 52°   Wind: 5mph
Humidity: 60%   Direction: 340°NNW
Pressure: 30.18"   Gusts: NA
Location:  38.6°S, 145.58°E
Report Text: YMEN 211200Z AUTO 34004KT 9999 // NCD 19/11 Q1022
Loading
Personal Weather Stations






























Interactive Weather Map
Tropical Storm Tracking
New forecast layout! Learn more

10-Day Weather Forecast

Advertisements
Track Severe Weather on mobile